Time;durP1;ratioP1;P1;durP2;ratioP2;P2;SDS_P1;SDS_P2;PMS_P1;PMS_P2;Temp;Humidity;BMP_temperature;BMP_pressure;BME280_temperature;BME280_humidity;BME280_pressure;Samples;Min_cycle;Max_cycle;Signal;HPM_P1;HPM_P2
2022/09/27 00:00:12;;;;;;;9.35;8.27;;;;;;;16.25;77.45;93750.72;4175607;28;20041;-62
2022/09/27 00:02:14;;;;;;;9.73;7.95;;;;;;;16.15;77.44;93750.38;4175890;28;20073;-64
2022/09/27 00:04:16;;;;;;;10.32;8.55;;;;;;;15.82;79.24;93748.81;4178240;28;20049;-63
2022/09/27 00:06:27;;;;;;;10.45;9.05;;;;;;;15.66;79.97;93741.38;4179004;28;20048;-66
2022/09/27 00:08:29;;;;;;;10.25;9.25;;;;;;;15.28;82.13;93718.50;4178801;28;20076;-65
2022/09/27 00:10:30;;;;;;;11.73;9.07;;;;;;;15.18;83.01;93742.69;4178960;28;20156;-65
2022/09/27 00:12:32;;;;;;;9.85;8.85;;;;;;;15.25;82.28;93732.91;4178239;28;20091;-65
2022/09/27 00:14:34;;;;;;;11.55;8.95;;;;;;;15.17;83.70;93753.47;4165374;28;20053;-65
2022/09/27 00:16:37;;;;;;;10.48;9.38;;;;;;;15.37;83.59;93754.16;4174374;28;20068;-65
2022/09/27 00:18:39;;;;;;;12.52;8.95;;;;;;;15.46;82.22;93755.50;4178004;28;20048;-65
2022/09/27 00:20:40;;;;;;;11.38;8.70;;;;;;;15.44;81.77;93768.13;4176216;28;20132;-65
2022/09/27 00:22:42;;;;;;;8.18;7.35;;;;;;;15.52;81.51;93777.63;4176007;28;20064;-64
2022/09/27 00:24:44;;;;;;;12.18;8.70;;;;;;;15.66;81.36;93773.91;4170827;28;20508;-64
2022/09/27 00:26:46;;;;;;;13.43;8.50;;;;;;;15.32;81.79;93767.19;4169078;28;20053;-65
2022/09/27 00:28:48;;;;;;;12.52;8.27;;;;;;;15.37;82.13;93770.00;4172838;28;20176;-65
2022/09/27 00:30:50;;;;;;;10.15;7.43;;;;;;;15.40;81.34;93764.31;4168499;28;20128;-63
2022/09/27 00:32:52;;;;;;;9.77;8.52;;;;;;;15.14;83.04;93752.84;4167259;28;20049;-65
2022/09/27 00:34:54;;;;;;;10.90;8.23;;;;;;;14.91;84.52;93745.44;4175104;28;20084;-68
2022/09/27 00:36:56;;;;;;;10.52;8.40;;;;;;;14.81;85.24;93742.44;4174198;28;20049;-64
2022/09/27 00:38:59;;;;;;;11.57;9.27;;;;;;;14.91;85.64;93731.47;4177587;28;20405;-64
2022/09/27 00:41:01;;;;;;;9.90;8.90;;;;;;;15.04;85.40;93735.88;4177359;28;20095;-62
2022/09/27 00:43:27;;;;;;;11.20;9.68;;;;;;;15.13;85.05;93742.50;4178042;28;20063;-63
2022/09/27 00:45:29;;;;;;;11.65;8.45;;;;;;;14.80;84.22;93724.19;4175264;28;20049;-65
2022/09/27 00:47:30;;;;;;;13.35;9.30;;;;;;;14.90;84.84;93737.72;4177451;28;20087;-66
2022/09/27 00:49:37;;;;;;;13.48;9.38;;;;;;;15.07;85.59;93725.69;4172135;28;20049;-65
2022/09/27 00:51:41;;;;;;;13.38;9.82;;;;;;;15.26;85.03;93716.06;4165774;28;20574;-66
2022/09/27 00:53:47;;;;;;;12.48;9.65;;;;;;;15.42;84.51;93719.22;4174084;28;20094;-59
2022/09/27 00:55:54;;;;;;;12.85;9.48;;;;;;;15.57;84.03;93725.81;4174223;28;20517;-58
2022/09/27 00:57:56;;;;;;;11.82;9.57;;;;;;;15.70;83.24;93719.66;4167658;28;20128;-58
2022/09/27 01:00:06;;;;;;;14.00;9.45;;;;;;;15.80;82.64;93713.09;4170005;28;20073;-60
2022/09/27 01:02:08;;;;;;;10.80;9.35;;;;;;;15.85;82.32;93710.59;4160161;28;20180;-60
2022/09/27 01:04:12;;;;;;;12.40;9.18;;;;;;;15.92;81.91;93732.50;4178275;28;20048;-60
2022/09/27 01:06:14;;;;;;;12.52;9.25;;;;;;;15.99;81.48;93738.53;4170011;28;20530;-58
2022/09/27 01:08:16;;;;;;;12.30;8.68;;;;;;;16.01;80.82;93722.47;4159931;28;20055;-58
2022/09/27 01:10:18;;;;;;;9.10;8.15;;;;;;;15.84;80.52;93736.22;4165835;28;20152;-58
2022/09/27 01:12:32;;;;;;;12.82;8.98;;;;;;;15.77;80.87;93732.81;4168876;28;20088;-59
2022/09/27 01:14:37;;;;;;;;;;;;;;;15.80;81.20;93727.09;4160959;28;20065;-57
2022/09/27 01:17:15;;;;;;;10.98;8.10;;;;;;;15.77;80.33;93698.50;4160182;28;19974;-59
2022/09/27 01:19:26;;;;;;;11.75;8.52;;;;;;;15.64;81.00;93706.47;4161937;28;20050;-60
2022/09/27 01:21:40;;;;;;;9.48;7.97;;;;;;;15.68;81.41;93697.09;4162257;28;20100;-58
2022/09/27 01:23:47;;;;;;;11.10;8.43;;;;;;;15.72;81.27;93707.06;4162079;28;20080;-59
2022/09/27 01:26:23;;;;;;;9.77;8.73;;;;;;;15.75;81.19;93703.19;4165315;28;20042;-58
2022/09/27 01:28:46;;;;;;;8.82;7.57;;;;;;;15.80;81.24;93710.47;4162448;28;20146;-60
2022/09/27 01:31:01;;;;;;;10.93;8.25;;;;;;;15.82;80.76;93721.63;4159967;28;20133;-59
2022/09/27 01:33:08;;;;;;;9.93;8.00;;;;;;;15.46;80.78;93717.75;4135282;28;20680;-60
2022/09/27 01:35:48;;;;;;;10.73;8.35;;;;;;;14.95;83.10;93717.63;4162250;28;20147;-60
2022/09/27 01:37:58;;;;;;;13.55;8.93;;;;;;;15.00;83.73;93716.19;4161409;28;20148;-60
2022/09/27 01:40:23;;;;;;;11.38;7.97;;;;;;;15.06;84.01;93704.81;4173304;28;20095;-58
2022/09/27 01:42:31;;;;;;;14.00;9.32;;;;;;;15.20;84.40;93719.53;4168455;28;20079;-59
2022/09/27 01:44:38;;;;;;;11.55;8.93;;;;;;;15.30;83.74;93732.28;4169784;28;20085;-60
2022/09/27 01:46:44;;;;;;;11.02;8.27;;;;;;;15.41;83.40;93718.41;4167137;28;20046;-59
2022/09/27 01:48:47;;;;;;;9.77;8.32;;;;;;;15.53;83.01;93727.28;4167458;28;20131;-60
2022/09/27 01:50:54;;;;;;;10.97;8.60;;;;;;;15.46;81.80;93721.19;4159978;28;20053;-59
2022/09/27 01:53:06;;;;;;;10.07;8.23;;;;;;;15.49;82.32;93728.72;4165433;28;20285;-64
2022/09/27 01:55:11;;;;;;;11.13;9.02;;;;;;;15.48;82.07;93705.16;4160081;28;20510;-65
2022/09/27 01:57:17;;;;;;;12.35;8.82;;;;;;;15.46;82.92;93707.22;4161640;28;20132;-63
2022/09/27 01:59:21;;;;;;;13.32;9.20;;;;;;;15.56;83.31;93710.19;4172249;28;20063;-62
2022/09/27 02:01:22;;;;;;;;;;;;;;;15.64;82.78;93706.47;4162959;28;20375;-64
2022/09/27 02:03:35;;;;;;;11.45;8.98;;;;;;;15.70;82.09;93695.88;4177343;28;19924;-64
2022/09/27 02:05:42;;;;;;;10.68;8.23;;;;;;;15.65;81.56;93698.34;4176119;28;20053;-63
2022/09/27 02:07:52;;;;;;;11.65;8.25;;;;;;;15.62;81.56;93690.84;4162492;28;20140;-66
2022/09/27 02:10:08;;;;;;;10.50;7.95;;;;;;;15.66;81.64;93693.84;4172270;28;20128;-65
2022/09/27 02:12:13;;;;;;;12.20;8.20;;;;;;;15.70;82.03;93679.22;4163593;28;20123;-64
2022/09/27 02:14:19;;;;;;;14.68;8.88;;;;;;;15.77;81.89;93664.16;4176710;28;20072;-65
2022/09/27 02:16:42;;;;;;;10.65;7.55;;;;;;;15.70;80.47;93666.00;4165544;28;20054;-65
2022/09/27 02:18:55;;;;;;;10.25;7.85;;;;;;;15.57;81.74;93678.31;4164819;28;20581;-65
2022/09/27 02:20:59;;;;;;;9.00;7.97;;;;;;;15.61;82.39;93685.78;4174488;28;20496;-64
2022/09/27 02:23:14;;;;;;;10.68;8.55;;;;;;;15.67;82.38;93654.06;4166362;28;20121;-65
2022/09/27 02:25:22;;;;;;;10.32;8.05;;;;;;;15.51;81.64;93636.13;4162796;28;20069;-65
2022/09/27 02:27:28;;;;;;;8.07;7.25;;;;;;;15.51;82.43;93636.94;4166331;28;20123;-65
2022/09/27 02:29:38;;;;;;;12.10;8.18;;;;;;;15.52;82.21;93630.63;4160185;28;20136;-65
2022/09/27 02:31:39;;;;;;;8.35;7.38;;;;;;;15.45;81.94;93626.44;4166172;28;20447;-66
2022/09/27 02:33:49;;;;;;;9.13;7.85;;;;;;;15.47;82.40;93625.19;4178370;28;20155;-65
2022/09/27 02:35:51;;;;;;;8.88;7.88;;;;;;;15.41;82.00;93623.41;4165840;28;20140;-64
2022/09/27 02:37:54;;;;;;;8.70;7.18;;;;;;;15.29;82.07;93627.75;4178115;28;20049;-64
2022/09/27 02:39:56;;;;;;;11.30;7.93;;;;;;;15.27;82.60;93608.69;4177058;28;20041;-64
2022/09/27 02:41:58;;;;;;;11.93;7.85;;;;;;;15.08;83.44;93618.38;4162655;28;20076;-65
2022/09/27 02:44:06;;;;;;;9.98;8.52;;;;;;;15.15;84.22;93635.75;4174778;28;20041;-65
2022/09/27 02:46:34;;;;;;;11.85;8.75;;;;;;;15.24;83.97;93631.03;4161829;28;20141;-65
2022/09/27 02:48:48;;;;;;;10.50;8.38;;;;;;;15.33;83.86;93656.13;4164637;28;20053;-65
2022/09/27 02:50:50;;;;;;;;;;;;;;;15.21;83.02;93633.28;4178155;28;20454;-65
2022/09/27 02:53:32;;;;;;;10.05;7.75;;;;;;;14.78;85.20;93641.84;4176541;28;19925;-64
2022/09/27 02:56:19;;;;;;;10.00;7.55;;;;;;;14.86;85.56;93658.25;4165619;28;20148;-62
2022/09/27 02:58:56;;;;;;;9.25;8.18;;;;;;;14.54;86.13;93657.34;4155674;28;20068;-64
2022/09/27 03:01:25;;;;;;;10.32;8.45;;;;;;;14.52;87.20;93648.84;4152464;28;20073;-63
2022/09/27 03:03:36;;;;;;;12.07;8.82;;;;;;;14.61;86.77;93623.09;4161135;28;20113;-64
2022/09/27 03:05:44;;;;;;;10.98;8.75;;;;;;;14.65;86.27;93613.75;4163095;28;20053;-64
2022/09/27 03:07:47;;;;;;;11.57;9.73;;;;;;;14.74;86.74;93612.47;4162893;28;20612;-65
2022/09/27 03:09:50;;;;;;;11.73;9.15;;;;;;;14.91;86.43;93600.41;4163702;28;20128;-63
2022/09/27 03:11:52;;;;;;;15.40;10.00;;;;;;;14.80;85.15;93595.81;4164095;28;20113;-64
2022/09/27 03:13:54;;;;;;;11.75;9.98;;;;;;;14.61;86.75;93596.75;4175961;28;20133;-64
2022/09/27 03:16:09;;;;;;;12.60;10.00;;;;;;;14.60;86.94;93590.63;4161710;28;20497;-64
2022/09/27 03:18:10;;;;;;;12.15;9.48;;;;;;;14.53;87.83;93574.81;4177914;28;20445;-64
2022/09/27 03:20:12;;;;;;;11.18;9.70;;;;;;;14.63;88.18;93574.41;4177021;28;20147;-64
2022/09/27 03:22:14;;;;;;;14.27;10.73;;;;;;;14.79;88.03;93575.72;4164832;28;20046;-67
2022/09/27 03:24:16;;;;;;;10.85;9.75;;;;;;;14.80;86.51;93569.47;4162151;28;20076;-65
2022/09/27 03:26:17;;;;;;;12.70;10.40;;;;;;;14.81;86.92;93578.16;4165358;28;20581;-65
2022/09/27 03:28:19;;;;;;;11.43;10.23;;;;;;;14.92;86.85;93586.19;4166053;28;20047;-66
2022/09/27 03:30:21;;;;;;;11.60;10.38;;;;;;;15.02;86.27;93569.91;4169012;28;20055;-65
2022/09/27 03:32:23;;;;;;;13.43;10.38;;;;;;;15.07;85.79;93579.81;4167709;28;20566;-62
2022/09/27 03:34:25;;;;;;;13.50;10.13;;;;;;;15.05;84.80;93585.28;4167703;28;20475;-64
2022/09/27 03:36:27;;;;;;;15.57;10.13;;;;;;;15.09;85.24;93583.03;4169918;28;20425;-65
2022/09/27 03:38:29;;;;;;;13.45;10.57;;;;;;;15.07;84.76;93577.19;4167542;28;20053;-64
2022/09/27 03:40:31;;;;;;;14.52;11.25;;;;;;;15.09;84.88;93572.50;4166073;28;20080;-66
2022/09/27 03:42:33;;;;;;;11.35;10.02;;;;;;;15.19;85.15;93577.31;4163517;28;20131;-64
2022/09/27 03:44:34;;;;;;;10.85;9.75;;;;;;;15.27;84.78;93566.47;4178147;28;20076;-67
2022/09/27 03:46:36;;;;;;;13.32;10.40;;;;;;;15.29;84.37;93580.25;4176594;28;20049;-65
2022/09/27 03:48:38;;;;;;;13.50;10.73;;;;;;;15.29;83.97;93569.69;4169775;28;20140;-67
2022/09/27 03:50:40;;;;;;;11.77;9.68;;;;;;;15.27;83.56;93563.81;4175659;28;20073;-64
2022/09/27 03:52:42;;;;;;;11.18;10.00;;;;;;;15.17;83.29;93580.16;4178566;28;20083;-65
2022/09/27 03:54:44;;;;;;;13.10;10.65;;;;;;;15.13;83.70;93587.69;4178634;28;20049;-64
2022/09/27 03:56:46;;;;;;;13.02;10.88;;;;;;;14.88;85.06;93584.19;4177477;28;20555;-63
2022/09/27 03:58:48;;;;;;;12.65;10.82;;;;;;;14.66;86.46;93579.25;4175347;28;20091;-63
2022/09/27 04:00:49;;;;;;;14.55;10.98;;;;;;;14.74;87.25;93573.75;4163797;28;20492;-62
2022/09/27 04:02:51;;;;;;;13.68;11.15;;;;;;;14.84;86.46;93577.72;4179630;28;20608;-63
2022/09/27 04:04:53;;;;;;;13.82;11.85;;;;;;;14.84;86.74;93578.56;4177254;28;20075;-68
2022/09/27 04:06:56;;;;;;;14.48;11.48;;;;;;;14.99;87.05;93572.16;4175945;28;20090;-63
2022/09/27 04:08:58;;;;;;;14.97;11.40;;;;;;;15.14;86.42;93576.13;4176461;28;20071;-64
2022/09/27 04:11:00;;;;;;;14.40;12.15;;;;;;;15.23;85.45;93584.56;4176215;28;20280;-65
2022/09/27 04:13:02;;;;;;;13.45;11.75;;;;;;;15.30;84.59;93568.69;4176804;28;20095;-65
2022/09/27 04:15:04;;;;;;;13.68;11.30;;;;;;;15.20;84.06;93563.88;4174088;28;20144;-64
2022/09/27 04:17:06;;;;;;;14.40;12.90;;;;;;;15.23;84.59;93571.38;4174858;28;20512;-64
2022/09/27 04:19:08;;;;;;;15.07;12.45;;;;;;;15.31;84.79;93572.94;4176591;28;20052;-64
2022/09/27 04:21:10;;;;;;;14.95;12.13;;;;;;;15.40;84.24;93563.75;4176295;28;20076;-66
2022/09/27 04:23:11;;;;;;;14.35;11.73;;;;;;;15.49;84.08;93562.44;4164422;28;20136;-66
2022/09/27 04:25:13;;;;;;;16.10;13.15;;;;;;;15.57;83.83;93567.44;4176692;28;20060;-65
2022/09/27 04:27:15;;;;;;;14.80;12.23;;;;;;;15.65;83.05;93568.19;4179257;28;20048;-65
2022/09/27 04:29:17;;;;;;;17.27;12.82;;;;;;;15.72;82.95;93566.31;4174654;28;20489;-64
2022/09/27 04:31:19;;;;;;;16.80;12.52;;;;;;;15.76;82.51;93562.19;4167493;28;20068;-65
2022/09/27 04:33:21;;;;;;;16.38;12.50;;;;;;;15.80;82.00;93563.38;4176176;28;20139;-64
2022/09/27 04:37:44;;;;;;;13.75;12.30;;;;;;;15.83;81.40;93570.88;4175771;28;20092;-64
2022/09/27 04:39:45;;;;;;;14.73;12.90;;;;;;;15.84;81.67;93574.31;4176439;28;20124;-65
2022/09/27 04:41:47;;;;;;;16.83;13.45;;;;;;;15.81;81.55;93566.81;4166041;28;20136;-64
2022/09/27 04:43:53;;;;;;;17.73;13.13;;;;;;;15.34;83.06;93562.75;4167069;28;20623;-68
2022/09/27 04:45:59;;;;;;;15.13;12.90;;;;;;;14.77;86.16;93572.50;4163710;28;20045;-66
2022/09/27 04:48:01;;;;;;;17.88;13.95;;;;;;;14.73;87.37;93584.47;4176842;28;20045;-66
2022/09/27 04:50:03;;;;;;;17.55;13.50;;;;;;;14.71;87.76;93581.25;4171383;28;20712;-66
2022/09/27 04:52:05;;;;;;;17.15;14.20;;;;;;;14.66;87.94;93583.72;4169936;28;20122;-66
2022/09/27 04:54:06;;;;;;;16.98;15.18;;;;;;;14.79;88.46;93577.56;4170834;28;20052;-65
2022/09/27 04:56:09;;;;;;;18.13;15.18;;;;;;;14.97;88.47;93580.31;4170795;28;20049;-65
2022/09/27 04:58:10;;;;;;;17.83;13.57;;;;;;;14.97;86.48;93582.09;4168202;28;20079;-67
2022/09/27 05:00:13;;;;;;;18.08;13.93;;;;;;;15.03;86.83;93576.00;4167046;28;20096;-62
2022/09/27 05:02:15;;;;;;;16.20;14.07;;;;;;;15.04;86.67;93575.78;4168381;28;20128;-65
2022/09/27 05:04:16;;;;;;;17.40;14.40;;;;;;;15.11;86.75;93568.63;4170556;28;20102;-67
2022/09/27 05:06:18;;;;;;;17.10;15.07;;;;;;;15.21;86.11;93567.31;4173733;28;20055;-59
2022/09/27 05:08:20;;;;;;;15.18;13.00;;;;;;;15.10;85.82;93564.38;4172710;28;20045;-59
2022/09/27 05:10:22;;;;;;;16.63;13.18;;;;;;;14.95;85.96;93551.50;4170737;28;20136;-58
2022/09/27 05:12:25;;;;;;;15.85;12.88;;;;;;;14.81;87.35;93557.06;4165508;28;20056;-58
2022/09/27 05:14:27;;;;;;;15.05;13.05;;;;;;;14.70;87.63;93550.66;4170056;28;20053;-60
2022/09/27 05:16:29;;;;;;;17.85;13.75;;;;;;;14.82;87.42;93545.50;4170039;28;20449;-59
2022/09/27 05:18:34;;;;;;;18.48;14.13;;;;;;;14.85;88.04;93542.44;4172795;28;20121;-59
2022/09/27 05:20:36;;;;;;;15.30;13.13;;;;;;;15.01;88.20;93544.53;4173261;28;20409;-61
2022/09/27 05:22:39;;;;;;;21.25;15.45;;;;;;;15.00;87.46;93536.88;4161811;28;20137;-60
2022/09/27 05:24:40;;;;;;;19.17;13.87;;;;;;;14.94;87.53;93549.06;4167761;28;20060;-60
2022/09/27 05:26:44;;;;;;;15.73;13.55;;;;;;;15.02;87.97;93546.19;4175096;28;20629;-60
2022/09/27 05:28:46;;;;;;;15.82;13.07;;;;;;;15.17;88.08;93535.31;4175603;28;20053;-59
2022/09/27 05:30:48;;;;;;;14.80;12.70;;;;;;;15.25;86.87;93531.56;4168901;28;20280;-60
2022/09/27 05:32:50;;;;;;;15.05;11.45;;;;;;;14.95;86.91;93530.41;4164942;28;20140;-60
2022/09/27 05:34:52;;;;;;;15.23;12.13;;;;;;;15.00;87.41;93544.78;4175775;28;20139;-60
2022/09/27 05:36:54;;;;;;;16.13;13.13;;;;;;;15.14;87.53;93549.75;4176497;28;20172;-64
2022/09/27 05:38:56;;;;;;;16.45;12.68;;;;;;;15.11;86.20;93534.31;4176196;28;20408;-60
2022/09/27 05:40:58;;;;;;;17.08;12.20;;;;;;;15.12;86.09;93556.22;4164138;28;20128;-60
2022/09/27 05:42:59;;;;;;;18.13;12.93;;;;;;;15.24;86.46;93554.53;4161354;28;20041;-58
2022/09/27 05:45:01;;;;;;;18.10;13.43;;;;;;;15.38;86.47;93557.88;4174333;28;20110;-61
2022/09/27 05:47:03;;;;;;;18.25;13.77;;;;;;;15.48;85.79;93549.44;4169141;28;20487;-58
2022/09/27 05:49:05;;;;;;;17.35;12.90;;;;;;;15.57;85.30;93546.31;4170678;28;20135;-60
2022/09/27 05:51:07;;;;;;;14.52;11.52;;;;;;;15.66;84.80;93548.66;4171915;28;20049;-59
2022/09/27 05:53:09;;;;;;;31.52;14.43;;;;;;;15.74;84.16;93545.78;4173023;28;20145;-60
2022/09/27 05:55:11;;;;;;;16.58;12.32;;;;;;;15.76;83.81;93543.72;4172509;28;20068;-62
2022/09/27 05:57:12;;;;;;;14.70;11.43;;;;;;;15.71;83.36;93565.50;4173229;28;20059;-59
2022/09/27 05:59:14;;;;;;;14.65;11.82;;;;;;;15.66;83.47;93556.56;4171912;28;20061;-58
2022/09/27 06:01:16;;;;;;;13.38;11.63;;;;;;;15.52;83.91;93548.78;4172713;28;20061;-60
2022/09/27 06:03:18;;;;;;;13.90;11.90;;;;;;;15.40;84.06;93558.47;4171926;28;20042;-59
2022/09/27 06:05:20;;;;;;;17.25;12.90;;;;;;;15.45;84.50;93560.44;4192687;28;20127;-61
2022/09/27 06:07:22;;;;;;;17.23;13.23;;;;;;;15.57;84.96;93559.53;4164844;28;20081;-66
2022/09/27 06:09:25;;;;;;;21.80;14.50;;;;;;;15.58;84.34;93557.69;4175456;28;20049;-61
2022/09/27 06:11:27;;;;;;;15.32;13.40;;;;;;;15.43;84.59;93559.84;4180389;28;20063;-60
2022/09/27 06:13:29;;;;;;;20.27;13.82;;;;;;;15.25;86.14;93535.03;4177901;28;20185;-61
2022/09/27 06:15:33;;;;;;;26.65;14.80;;;;;;;15.30;86.44;93558.94;4172908;28;20139;-61
2022/09/27 06:17:35;;;;;;;17.65;15.32;;;;;;;15.46;86.74;93564.69;4174288;28;20061;-66
2022/09/27 06:19:36;;;;;;;16.60;14.60;;;;;;;15.39;85.92;93548.13;4170320;28;20045;-68
2022/09/27 06:21:38;;;;;;;21.23;14.25;;;;;;;15.36;86.45;93559.91;4177061;28;20082;-65
2022/09/27 06:23:40;;;;;;;19.30;14.25;;;;;;;15.36;86.17;93552.81;4165348;28;20061;-66
2022/09/27 06:25:42;;;;;;;18.35;14.60;;;;;;;15.35;86.22;93551.16;4172474;28;20132;-66
2022/09/27 06:27:43;;;;;;;18.17;14.52;;;;;;;15.49;86.74;93551.88;4179979;28;20582;-69
2022/09/27 06:29:45;;;;;;;24.55;14.23;;;;;;;15.67;86.29;93547.66;4175462;28;20052;-65
2022/09/27 06:31:47;;;;;;;20.08;15.82;;;;;;;15.81;85.88;93550.97;4174605;28;20145;-65
2022/09/27 06:33:49;;;;;;;17.13;14.68;;;;;;;15.80;84.56;93547.53;4169047;28;20145;-65
2022/09/27 06:35:52;;;;;;;17.17;14.73;;;;;;;15.83;84.65;93562.13;4177070;28;20044;-65
2022/09/27 06:37:54;;;;;;;16.60;14.77;;;;;;;15.89;84.17;93564.69;4177025;28;20045;-65
2022/09/27 06:39:56;;;;;;;16.27;13.82;;;;;;;15.90;84.18;93553.13;4174414;28;20766;-66
2022/09/27 06:41:58;;;;;;;21.27;15.43;;;;;;;15.68;84.82;93536.06;4171561;28;20169;-64
2022/09/27 06:44:00;;;;;;;18.15;14.93;;;;;;;15.75;85.10;93552.69;4174808;28;20074;-66
2022/09/27 06:46:06;;;;;;;17.05;14.07;;;;;;;15.86;84.96;93556.44;4174999;28;20124;-67
2022/09/27 06:48:11;;;;;;;16.77;14.40;;;;;;;15.74;84.68;93556.34;4176458;28;20080;-67
2022/09/27 06:50:13;;;;;;;17.85;13.98;;;;;;;15.68;85.03;93559.81;4172022;28;20144;-65
2022/09/27 06:52:15;;;;;;;18.08;14.43;;;;;;;15.76;85.59;93556.91;4173474;28;20044;-67
2022/09/27 06:54:17;;;;;;;22.42;14.98;;;;;;;15.89;85.50;93551.50;4164956;28;20099;-67
2022/09/27 06:56:18;;;;;;;18.60;15.32;;;;;;;16.00;84.96;93543.88;4164448;28;20501;-65
2022/09/27 07:00:41;;;;;;;17.05;14.38;;;;;;;16.21;84.21;93542.63;4172255;28;20665;-66
2022/09/27 07:02:45;;;;;;;17.35;15.00;;;;;;;16.24;83.75;93558.84;4180415;28;20695;-65
2022/09/27 07:04:46;;;;;;;17.85;14.75;;;;;;;16.27;83.38;93557.59;4168101;28;20140;-67
2022/09/27 07:06:48;;;;;;;18.35;15.20;;;;;;;16.33;83.61;93568.09;4169928;28;20137;-66
2022/09/27 07:08:51;;;;;;;16.80;14.15;;;;;;;16.40;83.50;93567.19;4168814;28;20057;-68
2022/09/27 07:11:14;;;;;;;18.55;15.18;;;;;;;16.47;83.23;93557.34;4169575;28;20498;-66
2022/09/27 07:13:16;;;;;;;19.58;15.07;;;;;;;16.52;82.89;93555.66;4166953;28;20073;-66
2022/09/27 07:15:20;;;;;;;18.98;15.13;;;;;;;16.55;82.57;93564.97;4168947;28;20132;-66
2022/09/27 07:17:22;;;;;;;17.77;14.85;;;;;;;16.45;81.95;93559.41;4180212;28;20152;-66
2022/09/27 07:19:24;;;;;;;15.95;13.02;;;;;;;16.44;82.36;93557.81;4178695;28;20069;-66
2022/09/27 07:21:26;;;;;;;16.08;14.32;;;;;;;16.29;82.32;93547.63;4178300;28;20049;-70
2022/09/27 07:23:27;;;;;;;22.92;16.40;;;;;;;15.86;84.56;93559.88;4179619;28;20132;-67
2022/09/27 07:25:30;;;;;;;23.55;17.15;;;;;;;15.90;84.92;93568.19;4179205;28;20057;-67
2022/09/27 07:27:33;;;;;;;22.83;17.83;;;;;;;16.00;84.88;93572.94;4177316;28;20448;-68
2022/09/27 07:29:39;;;;;;;22.40;17.55;;;;;;;15.58;85.92;93568.25;4168920;28;20049;-66
2022/09/27 07:31:41;;;;;;;20.02;16.92;;;;;;;15.49;86.71;93575.63;4177075;28;20056;-67
2022/09/27 07:33:43;;;;;;;23.63;17.58;;;;;;;15.27;88.11;93563.81;4171977;28;20049;-69
2022/09/27 07:35:45;;;;;;;22.02;17.42;;;;;;;15.15;89.14;93559.25;4175180;28;20053;-67
2022/09/27 07:37:46;;;;;;;26.65;19.83;;;;;;;14.96;90.10;93578.66;4167906;28;20517;-67
2022/09/27 07:39:48;;;;;;;27.67;19.63;;;;;;;15.03;90.48;93574.16;4164225;28;20509;-65
2022/09/27 07:41:49;;;;;;;22.90;18.85;;;;;;;15.22;90.25;93576.88;4163491;28;20490;-65
2022/09/27 07:43:52;;;;;;;25.85;20.58;;;;;;;15.32;89.28;93571.91;4173131;28;20052;-66
2022/09/27 07:45:55;;;;;;;27.90;20.02;;;;;;;15.37;88.96;93580.00;4165269;28;20780;-66
2022/09/27 07:47:57;;;;;;;26.00;20.95;;;;;;;15.47;88.83;93590.06;4166707;28;20045;-68
2022/09/27 07:49:59;;;;;;;26.05;20.58;;;;;;;15.52;88.59;93585.75;4168555;28;20125;-59
2022/09/27 07:52:01;;;;;;;22.23;17.67;;;;;;;15.26;88.67;93573.59;4168176;28;20098;-60
2022/09/27 07:54:02;;;;;;;27.58;21.85;;;;;;;15.47;89.42;93582.97;4169230;28;20146;-60
2022/09/27 07:56:09;;;;;;;23.73;18.83;;;;;;;15.67;89.27;93587.25;4171056;28;20083;-59
2022/09/27 07:58:11;;;;;;;25.10;20.10;;;;;;;15.79;88.40;93580.25;4168198;28;20077;-59
2022/09/27 08:00:14;;;;;;;23.92;19.13;;;;;;;15.89;88.01;93575.25;4166454;28;20084;-61
2022/09/27 08:02:16;;;;;;;20.83;17.50;;;;;;;15.97;87.64;93582.91;4170194;28;20049;-58
2022/09/27 08:04:18;;;;;;;20.08;17.75;;;;;;;16.06;87.13;93569.41;4170235;28;20041;-60
2022/09/27 08:06:20;;;;;;;22.50;17.33;;;;;;;16.05;85.50;93559.88;4172272;28;20049;-61
2022/09/27 08:08:23;;;;;;;20.27;18.13;;;;;;;16.04;85.40;93558.25;4177075;28;20497;-60
2022/09/27 08:10:30;;;;;;;20.77;18.27;;;;;;;15.81;85.60;93553.63;4168892;28;20517;-59
2022/09/27 08:12:32;;;;;;;19.95;17.85;;;;;;;15.48;87.67;93538.88;4165244;28;20048;-59
2022/09/27 08:14:34;;;;;;;24.70;19.35;;;;;;;15.42;88.76;93539.75;4165057;28;20073;-60
2022/09/27 08:16:43;;;;;;;22.63;17.83;;;;;;;15.40;88.80;93550.53;4163621;28;20453;-61
2022/09/27 08:18:45;;;;;;;22.77;18.25;;;;;;;15.41;89.18;93552.16;4166990;28;20057;-60
2022/09/27 08:20:47;;;;;;;20.55;17.55;;;;;;;15.36;89.68;93552.00;4165019;28;20057;-59
2022/09/27 08:22:48;;;;;;;24.55;17.98;;;;;;;15.38;90.11;93563.16;4164984;28;20052;-59
2022/09/27 08:24:50;;;;;;;19.60;17.60;;;;;;;15.30;90.76;93564.22;4162437;28;20081;-60
2022/09/27 08:26:52;;;;;;;21.50;17.55;;;;;;;15.40;90.99;93561.09;4166779;28;20055;-61
2022/09/27 08:28:53;;;;;;;22.77;19.23;;;;;;;15.65;91.09;93549.69;4165240;28;20144;-60
2022/09/27 08:30:58;;;;;;;24.40;18.30;;;;;;;15.89;90.62;93556.78;4163427;28;20071;-62
2022/09/27 08:33:02;;;;;;;21.00;16.88;;;;;;;16.09;89.50;93550.47;4165061;28;20049;-60
2022/09/27 08:35:06;;;;;;;20.52;16.40;;;;;;;16.27;88.58;93545.19;4165833;28;20119;-61
2022/09/27 08:37:07;;;;;;;23.38;17.10;;;;;;;16.46;87.74;93524.81;4165150;28;20144;-60
2022/09/27 08:39:09;;;;;;;22.88;17.40;;;;;;;16.78;86.00;93516.66;4164805;28;20114;-58
2022/09/27 08:41:51;;;;;;;23.63;18.70;;;;;;;17.02;85.85;93540.56;4164814;28;20049;-60
2022/09/27 08:44:14;;;;;;;24.00;17.50;;;;;;;17.21;85.71;93531.50;4148011;28;20546;-63
2022/09/27 08:46:43;;;;;;;20.08;17.10;;;;;;;17.41;84.67;93536.47;4174213;28;20077;-67
2022/09/27 08:48:49;;;;;;;21.17;16.08;;;;;;;17.50;83.53;93528.97;4170196;28;20061;-70
2022/09/27 08:50:52;;;;;;;19.23;15.73;;;;;;;17.60;82.48;93530.00;4153330;28;20072;-69
2022/09/27 08:52:57;;;;;;;17.63;14.83;;;;;;;17.72;82.42;93527.34;4164698;28;20057;-69
2022/09/27 08:55:03;;;;;;;21.15;15.52;;;;;;;17.83;81.92;93532.91;4176284;28;20056;-68
2022/09/27 08:57:15;;;;;;;17.52;15.50;;;;;;;17.99;81.57;93533.00;4176276;28;20180;-68
2022/09/27 08:59:22;;;;;;;19.60;16.33;;;;;;;18.14;80.68;93537.00;4176034;28;20056;-66
2022/09/27 09:01:24;;;;;;;17.70;15.80;;;;;;;18.23;79.55;93510.94;4142341;28;20057;-65
2022/09/27 09:03:34;;;;;;;19.55;14.52;;;;;;;17.99;78.84;93517.09;4166309;28;20045;-68
2022/09/27 09:05:37;;;;;;;17.58;15.68;;;;;;;17.82;79.71;93524.16;4160054;28;20479;-67
2022/09/27 09:08:12;;;;;;;18.83;15.63;;;;;;;18.03;80.56;93521.94;4156633;28;20134;-68
2022/09/27 09:13:26;;;;;;;18.50;14.45;;;;;;;17.51;79.13;93510.22;4153118;28;20068;-68
2022/09/27 09:16:10;;;;;;;19.15;14.73;;;;;;;17.48;81.35;93512.50;4163851;28;20088;-68
2022/09/27 09:18:40;;;;;;;18.13;15.45;;;;;;;17.72;80.81;93518.59;4171060;28;20053;-67
2022/09/27 09:21:03;;;;;;;21.20;14.52;;;;;;;17.44;81.04;93514.00;4164899;28;20128;-65
2022/09/27 09:23:05;;;;;;;16.60;13.80;;;;;;;17.29;82.53;93509.16;4165369;28;20129;-67
2022/09/27 09:25:27;;;;;;;15.85;13.88;;;;;;;17.12;82.67;93509.84;4173495;28;20057;-67
2022/09/27 09:27:41;;;;;;;18.60;13.27;;;;;;;17.28;82.44;93512.84;4175571;28;20053;-68
2022/09/27 09:29:42;;;;;;;15.23;13.68;;;;;;;17.22;82.59;93498.69;4176130;28;20052;-69
2022/09/27 09:32:10;;;;;;;18.48;14.57;;;;;;;17.35;82.80;93490.53;4174595;28;20059;-69
2022/09/27 09:34:19;;;;;;;19.73;14.93;;;;;;;17.63;83.00;93501.47;4168876;28;20114;-69
2022/09/27 09:36:21;;;;;;;16.83;14.57;;;;;;;17.89;80.98;93490.38;4166451;28;20057;-66
2022/09/27 09:38:40;;;;;;;13.75;12.20;;;;;;;17.66;80.06;93496.50;4172579;28;20589;-66
2022/09/27 09:40:46;;;;;;;14.85;12.52;;;;;;;17.91;80.01;93509.50;4168991;28;20482;-66
2022/09/27 09:43:03;;;;;;;15.82;13.18;;;;;;;18.38;79.56;93495.31;4174893;28;20045;-66
2022/09/27 09:45:15;;;;;;;16.95;11.82;;;;;;;18.35;76.83;93507.22;4174753;28;20100;-68
2022/09/27 09:47:28;;;;;;;12.48;10.60;;;;;;;18.21;77.58;93517.28;4170977;28;20115;-69
2022/09/27 09:49:35;;;;;;;15.10;10.73;;;;;;;18.21;77.86;93516.47;4177790;28;20045;-68